Aérodrome :
LOGIN :

S'inscrire | Disclaimer

   EN    FR    IT 

 










Légende :    VFR   VFR Marginal   IFR   IFR Intensif   IFR Très Intensif
Visi : 
Plafond : 
>= 8 km
>= 3000ft
5 à 8 km
1000 à 3000 ft
1500m à 5 km
500 à 1000 ft
800 à 1500m
200 à 500 ft
< 800m
< 200 ft
Symboles :   Orages  Brouillard  Fortes neiges  Fortes précipitations  Vent > 20 kt
SIGMETs :   Divers  Orages  Givrage  Turbulence  Onde Orograph.  Cendres Volcan.






- Altitude de l'aérodrome : 238 ft
- Code IATA : FAB


EGLF - Farnborough

DERNIER METAR :
  • 152120Z AUTO 15004KT 6000 SCT020/// SCT038/// 00/M01 Q1030

METARs EXPIRÉS :
  • 152050Z VRB01KT 6000 FEW020 SCT031 M02/M02 Q1030
  • 152020Z 07002KT 6000 FEW030 M02/M02 Q1030
  • 151950Z 00000KT 7000 FEW040 M02/M03 Q1030
  • 151920Z 00000KT 7000 FEW038 M02/M03 Q1030
  • 151850Z VRB02KT 7000 FEW038 M02/M03 Q1030
  • 151820Z VRB01KT 7000 NSC M02/M03 Q1030

TAF TAF EGLF
Valide du 15 à 21h jusqu'au 15 à 23h UTC


151959Z 1521/1523 14004KT 9999 SCT040
TEMPO 1521/1523 7000
ATIS : +44 09063 800 400 (*282)



MET'MAP, la Météo Aéronautique d'un coup d'oeil ! - Copyright ORBIFLY Décembre 2007 - Disclaimer

ORBIFLY MET'MAP TEAM :

Programmation & Développement : Alexandra Zaïnal
Sur une idée originale de : Baudouin d'Aumeries
Assistance à la programmation : Marc-Olivier Méhu
Soutien technique & logistique : Manuel Goepfert

Contact : metmap@orbifly.com




SOURCES & CREDITS :

   NOAA